sensor_id;sensor_type;location;lat;lon;timestamp;P1;durP1;ratioP1;P2;durP2;ratioP2
67839;SDS011;54636;51.684;5.142;2022-09-25T00:01:28;12.93;;;3.40;;
67839;SDS011;54636;51.684;5.142;2022-09-25T00:03:53;11.90;;;3.78;;
67839;SDS011;54636;51.684;5.142;2022-09-25T00:06:21;10.35;;;4.15;;
67839;SDS011;54636;51.684;5.142;2022-09-25T00:08:50;12.37;;;4.27;;
67839;SDS011;54636;51.684;5.142;2022-09-25T00:11:17;12.57;;;4.10;;
67839;SDS011;54636;51.684;5.142;2022-09-25T00:13:44;12.98;;;4.00;;
67839;SDS011;54636;51.684;5.142;2022-09-25T00:16:11;12.18;;;4.10;;
67839;SDS011;54636;51.684;5.142;2022-09-25T00:18:38;14.95;;;4.20;;
67839;SDS011;54636;51.684;5.142;2022-09-25T00:21:23;13.27;;;5.03;;
67839;SDS011;54636;51.684;5.142;2022-09-25T00:23:55;16.13;;;4.75;;
67839;SDS011;54636;51.684;5.142;2022-09-25T00:26:27;12.70;;;4.30;;
67839;SDS011;54636;51.684;5.142;2022-09-25T00:28:54;13.10;;;4.40;;
67839;SDS011;54636;51.684;5.142;2022-09-25T00:31:20;17.95;;;4.93;;
67839;SDS011;54636;51.684;5.142;2022-09-25T00:33:49;22.70;;;5.47;;
67839;SDS011;54636;51.684;5.142;2022-09-25T00:36:15;14.38;;;4.30;;
67839;SDS011;54636;51.684;5.142;2022-09-25T00:38:41;12.38;;;4.18;;
67839;SDS011;54636;51.684;5.142;2022-09-25T00:41:07;14.57;;;5.15;;
67839;SDS011;54636;51.684;5.142;2022-09-25T00:43:37;12.30;;;4.25;;
67839;SDS011;54636;51.684;5.142;2022-09-25T00:46:27;10.30;;;4.40;;
67839;SDS011;54636;51.684;5.142;2022-09-25T00:48:56;11.02;;;4.80;;
67839;SDS011;54636;51.684;5.142;2022-09-25T00:51:36;9.68;;;4.40;;
67839;SDS011;54636;51.684;5.142;2022-09-25T00:54:05;14.05;;;5.10;;
67839;SDS011;54636;51.684;5.142;2022-09-25T00:56:34;8.82;;;5.10;;
67839;SDS011;54636;51.684;5.142;2022-09-25T00:59:06;12.15;;;5.38;;
67839;SDS011;54636;51.684;5.142;2022-09-25T01:01:35;9.70;;;4.75;;
67839;SDS011;54636;51.684;5.142;2022-09-25T01:04:01;13.23;;;5.00;;
67839;SDS011;54636;51.684;5.142;2022-09-25T01:06:26;11.15;;;5.10;;
67839;SDS011;54636;51.684;5.142;2022-09-25T01:08:53;10.95;;;4.38;;
67839;SDS011;54636;51.684;5.142;2022-09-25T01:11:19;7.38;;;5.68;;
67839;SDS011;54636;51.684;5.142;2022-09-25T01:13:45;16.35;;;5.93;;
67839;SDS011;54636;51.684;5.142;2022-09-25T01:16:16;8.75;;;4.68;;
67839;SDS011;54636;51.684;5.142;2022-09-25T01:30:05;12.18;;;5.28;;
67839;SDS011;54636;51.684;5.142;2022-09-25T01:44:11;6.28;;;5.07;;
67839;SDS011;54636;51.684;5.142;2022-09-25T01:46:46;16.80;;;5.50;;
67839;SDS011;54636;51.684;5.142;2022-09-25T01:49:26;17.73;;;5.38;;
67839;SDS011;54636;51.684;5.142;2022-09-25T01:51:55;12.77;;;5.60;;
67839;SDS011;54636;51.684;5.142;2022-09-25T01:54:29;12.20;;;4.78;;
67839;SDS011;54636;51.684;5.142;2022-09-25T01:59:35;7.60;;;5.03;;
67839;SDS011;54636;51.684;5.142;2022-09-25T02:02:06;10.52;;;5.38;;
67839;SDS011;54636;51.684;5.142;2022-09-25T02:04:36;7.55;;;5.75;;
67839;SDS011;54636;51.684;5.142;2022-09-25T02:07:05;10.52;;;5.47;;
67839;SDS011;54636;51.684;5.142;2022-09-25T02:12:13;11.05;;;5.22;;
67839;SDS011;54636;51.684;5.142;2022-09-25T02:14:49;9.85;;;5.57;;
67839;SDS011;54636;51.684;5.142;2022-09-25T02:17:22;10.75;;;5.30;;
67839;SDS011;54636;51.684;5.142;2022-09-25T02:20:14;10.80;;;5.43;;
67839;SDS011;54636;51.684;5.142;2022-09-25T02:26:04;10.50;;;5.22;;
67839;SDS011;54636;51.684;5.142;2022-09-25T02:28:33;9.73;;;5.63;;
67839;SDS011;54636;51.684;5.142;2022-09-25T02:30:59;10.13;;;5.95;;
67839;SDS011;54636;51.684;5.142;2022-09-25T02:33:28;9.55;;;5.38;;
67839;SDS011;54636;51.684;5.142;2022-09-25T02:35:57;8.45;;;5.60;;
67839;SDS011;54636;51.684;5.142;2022-09-25T02:38:26;9.75;;;5.82;;
67839;SDS011;54636;51.684;5.142;2022-09-25T02:40:55;11.40;;;5.68;;
67839;SDS011;54636;51.684;5.142;2022-09-25T02:48:58;7.88;;;5.63;;
67839;SDS011;54636;51.684;5.142;2022-09-25T02:51:45;10.75;;;5.80;;
67839;SDS011;54636;51.684;5.142;2022-09-25T02:54:23;6.60;;;5.43;;
67839;SDS011;54636;51.684;5.142;2022-09-25T02:56:58;12.60;;;5.82;;
67839;SDS011;54636;51.684;5.142;2022-09-25T02:59:32;8.35;;;5.72;;
67839;SDS011;54636;51.684;5.142;2022-09-25T03:02:02;13.00;;;6.38;;
67839;SDS011;54636;51.684;5.142;2022-09-25T03:04:30;11.35;;;6.18;;
67839;SDS011;54636;51.684;5.142;2022-09-25T03:07:00;11.15;;;6.63;;
67839;SDS011;54636;51.684;5.142;2022-09-25T03:09:26;16.77;;;6.65;;
67839;SDS011;54636;51.684;5.142;2022-09-25T03:11:56;14.25;;;7.00;;
67839;SDS011;54636;51.684;5.142;2022-09-25T03:14:21;16.00;;;6.28;;
67839;SDS011;54636;51.684;5.142;2022-09-25T03:16:50;12.00;;;7.20;;
67839;SDS011;54636;51.684;5.142;2022-09-25T03:19:20;10.35;;;6.57;;
67839;SDS011;54636;51.684;5.142;2022-09-25T03:21:46;9.75;;;6.82;;
67839;SDS011;54636;51.684;5.142;2022-09-25T03:24:11;8.02;;;6.72;;
67839;SDS011;54636;51.684;5.142;2022-09-25T03:26:37;13.57;;;6.88;;
67839;SDS011;54636;51.684;5.142;2022-09-25T03:29:02;9.07;;;6.97;;
67839;SDS011;54636;51.684;5.142;2022-09-25T03:31:28;12.82;;;7.38;;
67839;SDS011;54636;51.684;5.142;2022-09-25T03:33:54;18.63;;;7.32;;
67839;SDS011;54636;51.684;5.142;2022-09-25T03:36:20;11.25;;;7.05;;
67839;SDS011;54636;51.684;5.142;2022-09-25T03:38:48;11.93;;;6.40;;
67839;SDS011;54636;51.684;5.142;2022-09-25T03:41:17;10.03;;;6.80;;
67839;SDS011;54636;51.684;5.142;2022-09-25T03:43:45;9.05;;;6.50;;
67839;SDS011;54636;51.684;5.142;2022-09-25T03:46:14;8.95;;;6.72;;
67839;SDS011;54636;51.684;5.142;2022-09-25T03:48:39;10.43;;;6.80;;
67839;SDS011;54636;51.684;5.142;2022-09-25T03:51:05;13.57;;;7.18;;
67839;SDS011;54636;51.684;5.142;2022-09-25T03:53:31;8.23;;;5.95;;
67839;SDS011;54636;51.684;5.142;2022-09-25T03:56:05;10.35;;;7.00;;
67839;SDS011;54636;51.684;5.142;2022-09-25T03:58:33;8.20;;;7.15;;
67839;SDS011;54636;51.684;5.142;2022-09-25T04:00:59;12.95;;;6.95;;
67839;SDS011;54636;51.684;5.142;2022-09-25T04:03:26;9.60;;;6.97;;
67839;SDS011;54636;51.684;5.142;2022-09-25T04:05:53;14.63;;;7.25;;
67839;SDS011;54636;51.684;5.142;2022-09-25T04:08:20;15.32;;;8.32;;
67839;SDS011;54636;51.684;5.142;2022-09-25T04:10:45;12.95;;;7.22;;
67839;SDS011;54636;51.684;5.142;2022-09-25T04:13:11;10.68;;;7.38;;
67839;SDS011;54636;51.684;5.142;2022-09-25T04:15:40;11.75;;;7.80;;
67839;SDS011;54636;51.684;5.142;2022-09-25T04:18:07;9.20;;;7.03;;
67839;SDS011;54636;51.684;5.142;2022-09-25T04:20:33;12.23;;;6.68;;
67839;SDS011;54636;51.684;5.142;2022-09-25T04:22:59;10.85;;;7.18;;
67839;SDS011;54636;51.684;5.142;2022-09-25T04:25:24;9.52;;;6.50;;
67839;SDS011;54636;51.684;5.142;2022-09-25T04:27:53;8.00;;;6.13;;
67839;SDS011;54636;51.684;5.142;2022-09-25T04:30:24;9.80;;;6.38;;
67839;SDS011;54636;51.684;5.142;2022-09-25T04:32:50;8.25;;;6.22;;
67839;SDS011;54636;51.684;5.142;2022-09-25T04:35:35;8.00;;;6.43;;
67839;SDS011;54636;51.684;5.142;2022-09-25T04:38:00;7.45;;;6.22;;
67839;SDS011;54636;51.684;5.142;2022-09-25T04:40:27;8.88;;;7.18;;
67839;SDS011;54636;51.684;5.142;2022-09-25T04:42:56;22.35;;;7.72;;
67839;SDS011;54636;51.684;5.142;2022-09-25T04:47:55;6.75;;;5.93;;
67839;SDS011;54636;51.684;5.142;2022-09-25T04:50:23;12.30;;;7.25;;
67839;SDS011;54636;51.684;5.142;2022-09-25T04:52:50;11.98;;;7.32;;
67839;SDS011;54636;51.684;5.142;2022-09-25T04:55:20;7.78;;;6.55;;
67839;SDS011;54636;51.684;5.142;2022-09-25T04:57:51;7.05;;;6.35;;
67839;SDS011;54636;51.684;5.142;2022-09-25T05:00:17;11.40;;;7.20;;
67839;SDS011;54636;51.684;5.142;2022-09-25T05:02:43;10.13;;;6.90;;
67839;SDS011;54636;51.684;5.142;2022-09-25T05:05:12;10.63;;;7.23;;
67839;SDS011;54636;51.684;5.142;2022-09-25T05:07:40;7.53;;;6.82;;
67839;SDS011;54636;51.684;5.142;2022-09-25T05:10:15;11.38;;;6.88;;
67839;SDS011;54636;51.684;5.142;2022-09-25T05:12:41;7.68;;;6.93;;
67839;SDS011;54636;51.684;5.142;2022-09-25T05:15:07;9.90;;;6.25;;
67839;SDS011;54636;51.684;5.142;2022-09-25T05:17:33;9.13;;;6.53;;
67839;SDS011;54636;51.684;5.142;2022-09-25T05:19:58;10.63;;;6.88;;
67839;SDS011;54636;51.684;5.142;2022-09-25T05:22:24;8.63;;;7.10;;
67839;SDS011;54636;51.684;5.142;2022-09-25T05:24:49;8.05;;;6.68;;
67839;SDS011;54636;51.684;5.142;2022-09-25T05:27:16;9.85;;;6.75;;
67839;SDS011;54636;51.684;5.142;2022-09-25T05:29:42;7.45;;;6.35;;
67839;SDS011;54636;51.684;5.142;2022-09-25T05:32:07;13.50;;;6.50;;
67839;SDS011;54636;51.684;5.142;2022-09-25T05:34:32;7.82;;;6.75;;
67839;SDS011;54636;51.684;5.142;2022-09-25T05:36:58;8.90;;;6.35;;
67839;SDS011;54636;51.684;5.142;2022-09-25T05:39:24;6.90;;;6.07;;
67839;SDS011;54636;51.684;5.142;2022-09-25T05:41:49;9.50;;;6.55;;
67839;SDS011;54636;51.684;5.142;2022-09-25T05:44:15;8.27;;;6.45;;
67839;SDS011;54636;51.684;5.142;2022-09-25T05:46:40;9.25;;;6.55;;
67839;SDS011;54636;51.684;5.142;2022-09-25T05:49:06;13.45;;;6.82;;
67839;SDS011;54636;51.684;5.142;2022-09-25T05:51:31;10.60;;;6.80;;
67839;SDS011;54636;51.684;5.142;2022-09-25T05:53:57;11.77;;;6.97;;
67839;SDS011;54636;51.684;5.142;2022-09-25T05:56:24;10.23;;;6.63;;
67839;SDS011;54636;51.684;5.142;2022-09-25T05:58:50;8.63;;;6.25;;
67839;SDS011;54636;51.684;5.142;2022-09-25T06:01:17;7.20;;;6.45;;
67839;SDS011;54636;51.684;5.142;2022-09-25T06:03:42;7.88;;;7.07;;
67839;SDS011;54636;51.684;5.142;2022-09-25T06:06:08;8.88;;;7.35;;
67839;SDS011;54636;51.684;5.142;2022-09-25T06:08:33;11.48;;;7.45;;
67839;SDS011;54636;51.684;5.142;2022-09-25T06:10:59;8.88;;;7.30;;
67839;SDS011;54636;51.684;5.142;2022-09-25T06:13:26;11.73;;;7.43;;
67839;SDS011;54636;51.684;5.142;2022-09-25T06:15:53;12.88;;;8.65;;
67839;SDS011;54636;51.684;5.142;2022-09-25T06:18:19;12.57;;;7.55;;
67839;SDS011;54636;51.684;5.142;2022-09-25T06:20:46;10.38;;;7.68;;
67839;SDS011;54636;51.684;5.142;2022-09-25T06:23:13;10.38;;;7.68;;
67839;SDS011;54636;51.684;5.142;2022-09-25T06:25:38;8.75;;;7.75;;
67839;SDS011;54636;51.684;5.142;2022-09-25T06:28:04;15.65;;;8.52;;
67839;SDS011;54636;51.684;5.142;2022-09-25T06:30:31;12.30;;;8.65;;
67839;SDS011;54636;51.684;5.142;2022-09-25T06:33:00;10.32;;;8.43;;
67839;SDS011;54636;51.684;5.142;2022-09-25T06:35:40;9.40;;;8.43;;
67839;SDS011;54636;51.684;5.142;2022-09-25T06:38:15;9.63;;;8.25;;
67839;SDS011;54636;51.684;5.142;2022-09-25T06:40:41;13.65;;;8.40;;
67839;SDS011;54636;51.684;5.142;2022-09-25T06:43:10;14.13;;;8.73;;
67839;SDS011;54636;51.684;5.142;2022-09-25T06:45:37;15.55;;;8.73;;
67839;SDS011;54636;51.684;5.142;2022-09-25T06:48:07;20.50;;;9.40;;
67839;SDS011;54636;51.684;5.142;2022-09-25T06:53:02;12.27;;;8.65;;
67839;SDS011;54636;51.684;5.142;2022-09-25T06:55:28;18.52;;;9.95;;
67839;SDS011;54636;51.684;5.142;2022-09-25T06:57:56;20.33;;;10.23;;
67839;SDS011;54636;51.684;5.142;2022-09-25T07:00:22;37.63;;;11.25;;
67839;SDS011;54636;51.684;5.142;2022-09-25T07:02:47;17.50;;;9.98;;
67839;SDS011;54636;51.684;5.142;2022-09-25T07:05:31;21.75;;;10.43;;
67839;SDS011;54636;51.684;5.142;2022-09-25T07:07:57;17.13;;;10.77;;
67839;SDS011;54636;51.684;5.142;2022-09-25T07:10:22;20.38;;;10.75;;
67839;SDS011;54636;51.684;5.142;2022-09-25T07:12:48;17.95;;;10.10;;
67839;SDS011;54636;51.684;5.142;2022-09-25T07:15:13;20.55;;;10.60;;
67839;SDS011;54636;51.684;5.142;2022-09-25T07:17:43;18.88;;;10.85;;
67839;SDS011;54636;51.684;5.142;2022-09-25T07:22:42;21.80;;;10.32;;
67839;SDS011;54636;51.684;5.142;2022-09-25T07:25:08;22.88;;;10.43;;
67839;SDS011;54636;51.684;5.142;2022-09-25T07:27:35;20.60;;;11.63;;
67839;SDS011;54636;51.684;5.142;2022-09-25T07:30:01;18.83;;;9.90;;
67839;SDS011;54636;51.684;5.142;2022-09-25T07:32:27;23.17;;;11.70;;
67839;SDS011;54636;51.684;5.142;2022-09-25T07:34:53;19.88;;;11.88;;
67839;SDS011;54636;51.684;5.142;2022-09-25T07:37:18;25.30;;;11.57;;
67839;SDS011;54636;51.684;5.142;2022-09-25T07:39:44;22.80;;;11.45;;
67839;SDS011;54636;51.684;5.142;2022-09-25T07:42:10;20.42;;;12.23;;
67839;SDS011;54636;51.684;5.142;2022-09-25T07:44:35;22.48;;;12.13;;
67839;SDS011;54636;51.684;5.142;2022-09-25T07:47:01;17.80;;;11.25;;
67839;SDS011;54636;51.684;5.142;2022-09-25T07:49:27;20.05;;;11.20;;
67839;SDS011;54636;51.684;5.142;2022-09-25T07:51:54;21.02;;;10.43;;
67839;SDS011;54636;51.684;5.142;2022-09-25T07:54:19;22.80;;;9.75;;
67839;SDS011;54636;51.684;5.142;2022-09-25T07:56:45;19.25;;;9.00;;
67839;SDS011;54636;51.684;5.142;2022-09-25T07:59:10;14.10;;;8.35;;
67839;SDS011;54636;51.684;5.142;2022-09-25T08:01:35;13.55;;;7.22;;
67839;SDS011;54636;51.684;5.142;2022-09-25T08:04:01;13.05;;;7.68;;
67839;SDS011;54636;51.684;5.142;2022-09-25T08:06:26;9.65;;;7.10;;
67839;SDS011;54636;51.684;5.142;2022-09-25T08:08:52;13.00;;;7.65;;
67839;SDS011;54636;51.684;5.142;2022-09-25T08:11:17;13.20;;;7.05;;
67839;SDS011;54636;51.684;5.142;2022-09-25T08:13:43;9.10;;;6.57;;
67839;SDS011;54636;51.684;5.142;2022-09-25T08:16:10;17.10;;;7.80;;
67839;SDS011;54636;51.684;5.142;2022-09-25T08:18:38;10.32;;;6.78;;
67839;SDS011;54636;51.684;5.142;2022-09-25T08:21:08;11.95;;;7.07;;
67839;SDS011;54636;51.684;5.142;2022-09-25T08:23:34;19.38;;;7.57;;
67839;SDS011;54636;51.684;5.142;2022-09-25T08:26:00;15.32;;;7.55;;
67839;SDS011;54636;51.684;5.142;2022-09-25T08:28:26;15.98;;;6.63;;
67839;SDS011;54636;51.684;5.142;2022-09-25T08:30:52;7.93;;;5.15;;
67839;SDS011;54636;51.684;5.142;2022-09-25T08:33:18;11.05;;;5.35;;
67839;SDS011;54636;51.684;5.142;2022-09-25T08:35:43;15.30;;;4.07;;
67839;SDS011;54636;51.684;5.142;2022-09-25T08:38:19;8.82;;;3.95;;
67839;SDS011;54636;51.684;5.142;2022-09-25T08:43:28;9.98;;;3.78;;
67839;SDS011;54636;51.684;5.142;2022-09-25T08:45:57;6.05;;;3.20;;
67839;SDS011;54636;51.684;5.142;2022-09-25T08:48:55;12.93;;;3.33;;
67839;SDS011;54636;51.684;5.142;2022-09-25T08:51:31;5.68;;;2.55;;
67839;SDS011;54636;51.684;5.142;2022-09-25T08:54:01;11.88;;;3.13;;
67839;SDS011;54636;51.684;5.142;2022-09-25T08:56:27;5.43;;;2.05;;
67839;SDS011;54636;51.684;5.142;2022-09-25T08:59:02;10.43;;;2.80;;
67839;SDS011;54636;51.684;5.142;2022-09-25T09:04:18;3.97;;;2.00;;
67839;SDS011;54636;51.684;5.142;2022-09-25T09:06:56;10.13;;;2.03;;
67839;SDS011;54636;51.684;5.142;2022-09-25T09:09:37;2.00;;;1.30;;
67839;SDS011;54636;51.684;5.142;2022-09-25T09:12:11;7.95;;;1.92;;
67839;SDS011;54636;51.684;5.142;2022-09-25T09:14:41;6.05;;;1.67;;
67839;SDS011;54636;51.684;5.142;2022-09-25T09:17:22;9.63;;;2.00;;
67839;SDS011;54636;51.684;5.142;2022-09-25T09:19:52;8.98;;;1.50;;
67839;SDS011;54636;51.684;5.142;2022-09-25T09:22:25;7.30;;;1.55;;
67839;SDS011;54636;51.684;5.142;2022-09-25T09:36:29;5.90;;;1.73;;
67839;SDS011;54636;51.684;5.142;2022-09-25T09:53:01;10.25;;;1.90;;
67839;SDS011;54636;51.684;5.142;2022-09-25T09:55:41;6.80;;;1.73;;
67839;SDS011;54636;51.684;5.142;2022-09-25T10:00:59;4.97;;;1.15;;
67839;SDS011;54636;51.684;5.142;2022-09-25T10:03:28;7.78;;;1.42;;
67839;SDS011;54636;51.684;5.142;2022-09-25T10:06:00;5.88;;;1.30;;
67839;SDS011;54636;51.684;5.142;2022-09-25T10:08:33;7.00;;;1.00;;
67839;SDS011;54636;51.684;5.142;2022-09-25T10:10:59;4.07;;;1.58;;
67839;SDS011;54636;51.684;5.142;2022-09-25T10:13:36;6.00;;;1.65;;
67839;SDS011;54636;51.684;5.142;2022-09-25T10:16:04;6.63;;;1.55;;
67839;SDS011;54636;51.684;5.142;2022-09-25T10:19:21;2.85;;;1.02;;
67839;SDS011;54636;51.684;5.142;2022-09-25T10:21:26;6.82;;;1.10;;
67839;SDS011;54636;51.684;5.142;2022-09-25T10:23:56;4.85;;;1.30;;
67839;SDS011;54636;51.684;5.142;2022-09-25T10:26:34;1.60;;;0.90;;
67839;SDS011;54636;51.684;5.142;2022-09-25T10:29:03;3.83;;;1.30;;
67839;SDS011;54636;51.684;5.142;2022-09-25T10:31:32;4.72;;;1.00;;
67839;SDS011;54636;51.684;5.142;2022-09-25T10:36:38;5.35;;;1.40;;
67839;SDS011;54636;51.684;5.142;2022-09-25T10:39:21;3.45;;;1.58;;
67839;SDS011;54636;51.684;5.142;2022-09-25T10:42:00;7.10;;;1.27;;
67839;SDS011;54636;51.684;5.142;2022-09-25T10:44:30;5.28;;;1.40;;
67839;SDS011;54636;51.684;5.142;2022-09-25T10:47:25;6.35;;;1.00;;
67839;SDS011;54636;51.684;5.142;2022-09-25T10:52:51;2.85;;;0.88;;
67839;SDS011;54636;51.684;5.142;2022-09-25T10:55:26;4.82;;;0.90;;
67839;SDS011;54636;51.684;5.142;2022-09-25T10:58:40;4.70;;;1.10;;
67839;SDS011;54636;51.684;5.142;2022-09-25T11:03:14;1.75;;;0.63;;
67839;SDS011;54636;51.684;5.142;2022-09-25T11:05:49;6.38;;;1.40;;
67839;SDS011;54636;51.684;5.142;2022-09-25T11:08:19;4.82;;;1.15;;
67839;SDS011;54636;51.684;5.142;2022-09-25T11:10:54;6.05;;;1.05;;
67839;SDS011;54636;51.684;5.142;2022-09-25T11:13:25;3.35;;;1.30;;
67839;SDS011;54636;51.684;5.142;2022-09-25T11:15:58;2.58;;;1.00;;
67839;SDS011;54636;51.684;5.142;2022-09-25T11:21:20;2.00;;;0.95;;
67839;SDS011;54636;51.684;5.142;2022-09-25T11:23:59;4.72;;;1.25;;
67839;SDS011;54636;51.684;5.142;2022-09-25T11:27:13;2.40;;;0.88;;
67839;SDS011;54636;51.684;5.142;2022-09-25T11:35:16;5.88;;;0.70;;
67839;SDS011;54636;51.684;5.142;2022-09-25T11:43:34;3.22;;;0.85;;
67839;SDS011;54636;51.684;5.142;2022-09-25T11:46:34;2.05;;;0.55;;
67839;SDS011;54636;51.684;5.142;2022-09-25T11:49:25;2.33;;;0.80;;
67839;SDS011;54636;51.684;5.142;2022-09-25T11:57:10;1.45;;;0.73;;
67839;SDS011;54636;51.684;5.142;2022-09-25T12:18:21;4.13;;;1.10;;
67839;SDS011;54636;51.684;5.142;2022-09-25T12:20:51;1.95;;;0.45;;
67839;SDS011;54636;51.684;5.142;2022-09-25T12:23:55;3.22;;;0.65;;
67839;SDS011;54636;51.684;5.142;2022-09-25T12:26:38;1.52;;;0.77;;
67839;SDS011;54636;51.684;5.142;2022-09-25T12:40:14;4.00;;;0.93;;
67839;SDS011;54636;51.684;5.142;2022-09-25T12:42:56;4.18;;;1.20;;
67839;SDS011;54636;51.684;5.142;2022-09-25T12:45:40;6.07;;;0.80;;
67839;SDS011;54636;51.684;5.142;2022-09-25T12:48:21;2.03;;;0.68;;
67839;SDS011;54636;51.684;5.142;2022-09-25T12:50:56;4.10;;;0.98;;
67839;SDS011;54636;51.684;5.142;2022-09-25T12:53:32;1.48;;;0.70;;
67839;SDS011;54636;51.684;5.142;2022-09-25T12:56:45;4.32;;;0.57;;
67839;SDS011;54636;51.684;5.142;2022-09-25T12:59:28;2.40;;;0.70;;
67839;SDS011;54636;51.684;5.142;2022-09-25T13:02:10;2.20;;;1.00;;
67839;SDS011;54636;51.684;5.142;2022-09-25T13:05:09;4.78;;;0.75;;
67839;SDS011;54636;51.684;5.142;2022-09-25T13:12:48;6.78;;;1.08;;
67839;SDS011;54636;51.684;5.142;2022-09-25T13:15:17;3.90;;;0.90;;
67839;SDS011;54636;51.684;5.142;2022-09-25T13:17:49;2.65;;;0.70;;
67839;SDS011;54636;51.684;5.142;2022-09-25T13:23:10;2.58;;;0.70;;
67839;SDS011;54636;51.684;5.142;2022-09-25T13:25:42;1.83;;;0.63;;
67839;SDS011;54636;51.684;5.142;2022-09-25T13:28:21;3.65;;;0.50;;
67839;SDS011;54636;51.684;5.142;2022-09-25T13:31:27;4.50;;;0.80;;
67839;SDS011;54636;51.684;5.142;2022-09-25T13:39:01;6.03;;;1.17;;
67839;SDS011;54636;51.684;5.142;2022-09-25T13:41:54;2.13;;;0.70;;
67839;SDS011;54636;51.684;5.142;2022-09-25T13:49:54;2.08;;;0.80;;
67839;SDS011;54636;51.684;5.142;2022-09-25T14:00:40;2.85;;;0.63;;
67839;SDS011;54636;51.684;5.142;2022-09-25T14:06:23;2.65;;;0.82;;
67839;SDS011;54636;51.684;5.142;2022-09-25T14:08:54;1.90;;;0.43;;
67839;SDS011;54636;51.684;5.142;2022-09-25T14:11:24;2.10;;;0.52;;
67839;SDS011;54636;51.684;5.142;2022-09-25T14:13:57;1.13;;;0.60;;
67839;SDS011;54636;51.684;5.142;2022-09-25T14:18:57;1.80;;;0.70;;
67839;SDS011;54636;51.684;5.142;2022-09-25T14:21:24;0.93;;;0.40;;
67839;SDS011;54636;51.684;5.142;2022-09-25T14:23:53;4.25;;;1.13;;
67839;SDS011;54636;51.684;5.142;2022-09-25T14:26:21;2.28;;;0.70;;
67839;SDS011;54636;51.684;5.142;2022-09-25T14:28:50;4.38;;;0.47;;
67839;SDS011;54636;51.684;5.142;2022-09-25T14:45:13;4.75;;;0.70;;
67839;SDS011;54636;51.684;5.142;2022-09-25T14:47:43;2.53;;;0.93;;
67839;SDS011;54636;51.684;5.142;2022-09-25T14:50:17;0.77;;;0.57;;
67839;SDS011;54636;51.684;5.142;2022-09-25T14:52:47;1.55;;;0.52;;
67839;SDS011;54636;51.684;5.142;2022-09-25T14:55:15;1.52;;;0.55;;
67839;SDS011;54636;51.684;5.142;2022-09-25T14:57:44;2.28;;;0.60;;
67839;SDS011;54636;51.684;5.142;2022-09-25T15:00:16;0.85;;;0.60;;
67839;SDS011;54636;51.684;5.142;2022-09-25T15:02:48;0.98;;;0.60;;
67839;SDS011;54636;51.684;5.142;2022-09-25T15:05:35;1.63;;;0.55;;
67839;SDS011;54636;51.684;5.142;2022-09-25T15:08:01;0.82;;;0.60;;
67839;SDS011;54636;51.684;5.142;2022-09-25T15:10:42;2.78;;;1.10;;
67839;SDS011;54636;51.684;5.142;2022-09-25T15:13:12;1.45;;;1.08;;
67839;SDS011;54636;51.684;5.142;2022-09-25T15:15:40;1.95;;;0.98;;
67839;SDS011;54636;51.684;5.142;2022-09-25T15:18:26;2.08;;;0.60;;
67839;SDS011;54636;51.684;5.142;2022-09-25T15:20:53;1.95;;;1.85;;
67839;SDS011;54636;51.684;5.142;2022-09-25T15:23:19;1.83;;;1.73;;
67839;SDS011;54636;51.684;5.142;2022-09-25T15:25:47;1.13;;;0.47;;
67839;SDS011;54636;51.684;5.142;2022-09-25T15:28:19;4.10;;;0.98;;
67839;SDS011;54636;51.684;5.142;2022-09-25T15:33:28;1.02;;;0.70;;
67839;SDS011;54636;51.684;5.142;2022-09-25T15:35:56;2.60;;;0.80;;
67839;SDS011;54636;51.684;5.142;2022-09-25T15:38:27;0.65;;;0.50;;
67839;SDS011;54636;51.684;5.142;2022-09-25T15:40:55;1.73;;;1.20;;
67839;SDS011;54636;51.684;5.142;2022-09-25T15:43:20;0.95;;;0.80;;
67839;SDS011;54636;51.684;5.142;2022-09-25T15:45:56;1.65;;;0.52;;
67839;SDS011;54636;51.684;5.142;2022-09-25T15:48:31;0.40;;;0.40;;
67839;SDS011;54636;51.684;5.142;2022-09-25T15:56:26;9.40;;;8.48;;
67839;SDS011;54636;51.684;5.142;2022-09-25T15:58:54;0.68;;;0.68;;
67839;SDS011;54636;51.684;5.142;2022-09-25T16:01:24;0.70;;;0.70;;
67839;SDS011;54636;51.684;5.142;2022-09-25T16:04:28;1.00;;;0.80;;
67839;SDS011;54636;51.684;5.142;2022-09-25T16:07:20;1.30;;;0.80;;
67839;SDS011;54636;51.684;5.142;2022-09-25T16:09:49;4.57;;;4.03;;
67839;SDS011;54636;51.684;5.142;2022-09-25T16:14:54;2.53;;;1.90;;
67839;SDS011;54636;51.684;5.142;2022-09-25T16:17:22;7.63;;;6.53;;
67839;SDS011;54636;51.684;5.142;2022-09-25T16:19:59;7.10;;;4.75;;
67839;SDS011;54636;51.684;5.142;2022-09-25T16:22:26;2.25;;;1.10;;
67839;SDS011;54636;51.684;5.142;2022-09-25T16:24:58;2.55;;;1.60;;
67839;SDS011;54636;51.684;5.142;2022-09-25T16:27:26;5.07;;;2.55;;
67839;SDS011;54636;51.684;5.142;2022-09-25T16:29:55;2.03;;;1.92;;
67839;SDS011;54636;51.684;5.142;2022-09-25T16:32:22;3.75;;;1.67;;
67839;SDS011;54636;51.684;5.142;2022-09-25T16:34:52;2.35;;;1.73;;
67839;SDS011;54636;51.684;5.142;2022-09-25T16:37:21;2.47;;;2.13;;
67839;SDS011;54636;51.684;5.142;2022-09-25T16:40:07;2.53;;;1.00;;
67839;SDS011;54636;51.684;5.142;2022-09-25T16:42:43;1.52;;;1.00;;
67839;SDS011;54636;51.684;5.142;2022-09-25T16:47:38;1.45;;;1.25;;
67839;SDS011;54636;51.684;5.142;2022-09-25T16:50:06;4.13;;;1.27;;
67839;SDS011;54636;51.684;5.142;2022-09-25T16:52:34;2.38;;;1.48;;
67839;SDS011;54636;51.684;5.142;2022-09-25T16:55:03;4.05;;;1.50;;
67839;SDS011;54636;51.684;5.142;2022-09-25T16:57:33;2.25;;;1.45;;
67839;SDS011;54636;51.684;5.142;2022-09-25T16:59:59;5.45;;;1.70;;
67839;SDS011;54636;51.684;5.142;2022-09-25T17:02:26;1.83;;;1.27;;
67839;SDS011;54636;51.684;5.142;2022-09-25T17:04:57;3.42;;;1.48;;
67839;SDS011;54636;51.684;5.142;2022-09-25T17:07:24;5.35;;;1.92;;
67839;SDS011;54636;51.684;5.142;2022-09-25T17:09:50;4.18;;;3.80;;
67839;SDS011;54636;51.684;5.142;2022-09-25T17:12:17;4.28;;;2.00;;
67839;SDS011;54636;51.684;5.142;2022-09-25T17:14:45;0.90;;;0.90;;
67839;SDS011;54636;51.684;5.142;2022-09-25T17:17:12;3.55;;;2.60;;
67839;SDS011;54636;51.684;5.142;2022-09-25T17:19:41;2.25;;;1.63;;
67839;SDS011;54636;51.684;5.142;2022-09-25T17:22:07;3.25;;;1.73;;
67839;SDS011;54636;51.684;5.142;2022-09-25T17:24:33;3.58;;;1.30;;
67839;SDS011;54636;51.684;5.142;2022-09-25T17:26:59;2.97;;;2.17;;
67839;SDS011;54636;51.684;5.142;2022-09-25T17:29:26;2.22;;;2.08;;
67839;SDS011;54636;51.684;5.142;2022-09-25T17:31:52;2.50;;;2.30;;
67839;SDS011;54636;51.684;5.142;2022-09-25T17:34:21;2.17;;;1.13;;
67839;SDS011;54636;51.684;5.142;2022-09-25T17:36:49;3.72;;;1.52;;
67839;SDS011;54636;51.684;5.142;2022-09-25T17:39:15;1.50;;;1.40;;
67839;SDS011;54636;51.684;5.142;2022-09-25T17:41:41;2.45;;;1.45;;
67839;SDS011;54636;51.684;5.142;2022-09-25T17:44:08;1.45;;;0.90;;
67839;SDS011;54636;51.684;5.142;2022-09-25T17:46:37;0.70;;;0.70;;
67839;SDS011;54636;51.684;5.142;2022-09-25T17:49:03;1.02;;;0.90;;
67839;SDS011;54636;51.684;5.142;2022-09-25T17:51:29;0.85;;;0.75;;
67839;SDS011;54636;51.684;5.142;2022-09-25T17:53:55;1.55;;;1.45;;
67839;SDS011;54636;51.684;5.142;2022-09-25T17:56:23;5.40;;;1.27;;
67839;SDS011;54636;51.684;5.142;2022-09-25T17:58:49;2.33;;;1.33;;
67839;SDS011;54636;51.684;5.142;2022-09-25T18:01:20;2.28;;;1.20;;
67839;SDS011;54636;51.684;5.142;2022-09-25T18:03:47;1.52;;;1.10;;
67839;SDS011;54636;51.684;5.142;2022-09-25T18:06:14;1.77;;;0.90;;
67839;SDS011;54636;51.684;5.142;2022-09-25T18:08:39;3.25;;;1.05;;
67839;SDS011;54636;51.684;5.142;2022-09-25T18:11:08;2.35;;;1.00;;
67839;SDS011;54636;51.684;5.142;2022-09-25T18:13:35;2.85;;;1.08;;
67839;SDS011;54636;51.684;5.142;2022-09-25T18:16:00;3.35;;;1.40;;
67839;SDS011;54636;51.684;5.142;2022-09-25T18:18:26;1.23;;;0.90;;